createdAt,value
2023-05-08T00:02:22.175Z,101562.81
2023-05-08T00:07:25.901Z,101562.88
2023-05-08T00:12:29.496Z,101545.91
2023-05-08T00:17:34.762Z,101552.06
2023-05-08T00:22:38.576Z,101557.00
2023-05-08T00:27:42.417Z,101558.22
2023-05-08T00:32:47.856Z,101546.13
2023-05-08T00:37:50.917Z,101553.00
2023-05-08T00:42:54.575Z,101560.53
2023-05-08T00:48:00.325Z,101548.34
2023-05-08T00:53:05.389Z,101551.31
2023-05-08T00:58:09.352Z,101550.94
2023-05-08T01:03:15.889Z,101547.06
2023-05-08T01:08:19.669Z,101554.63
2023-05-08T01:13:45.328Z,101554.13
2023-05-08T01:19:10.573Z,101545.19
2023-05-08T01:24:53.591Z,101546.75
2023-05-08T01:30:20.565Z,101532.13
2023-05-08T01:35:33.480Z,101538.50
2023-05-08T01:40:46.418Z,101541.13
2023-05-08T01:45:53.107Z,101525.81
2023-05-08T01:51:04.627Z,101526.97
2023-05-08T01:56:12.832Z,101531.19
2023-05-08T02:01:19.381Z,101534.06
2023-05-08T02:06:25.819Z,101534.41
2023-05-08T02:11:31.619Z,101526.84
2023-05-08T02:16:35.648Z,101524.53
2023-05-08T02:21:45.112Z,101521.69
2023-05-08T02:26:50.643Z,101518.78
2023-05-08T02:31:56.170Z,101523.47
2023-05-08T02:37:04.069Z,101516.13
2023-05-08T02:42:09.093Z,101519.06
2023-05-08T02:47:22.189Z,101520.09
2023-05-08T02:52:33.096Z,101512.53
2023-05-08T02:57:44.628Z,101515.97
2023-05-08T03:02:53.806Z,101511.38
2023-05-08T03:08:04.473Z,101519.75
2023-05-08T03:13:10.253Z,101527.00
2023-05-08T03:18:18.848Z,101527.31
2023-05-08T03:23:27.290Z,101525.69
2023-05-08T03:28:32.486Z,101535.53
2023-05-08T03:33:39.616Z,101528.84
2023-05-08T03:38:46.323Z,101528.31
2023-05-08T03:43:51.035Z,101529.13
2023-05-08T03:48:55.364Z,101530.09
2023-05-08T03:54:00.592Z,101539.59
2023-05-08T03:59:15.243Z,101541.63
2023-05-08T04:04:22.904Z,101543.63
2023-05-08T04:09:35.452Z,101552.38
2023-05-08T04:14:46.205Z,101566.56
2023-05-08T04:19:56.516Z,101568.63
2023-05-08T04:25:06.103Z,101565.28
2023-05-08T04:30:11.010Z,101568.69
2023-05-08T04:35:15.358Z,101565.81
2023-05-08T04:40:20.832Z,101573.81
2023-05-08T04:45:24.682Z,101570.50
2023-05-08T04:50:28.291Z,101568.59
2023-05-08T04:55:33.515Z,101570.47
2023-05-08T05:00:37.401Z,101573.97
2023-05-08T05:05:41.772Z,101578.63
2023-05-08T05:10:47.083Z,101590.28
2023-05-08T05:15:50.711Z,101577.38
2023-05-08T05:20:54.345Z,101575.75
2023-05-08T05:25:59.616Z,101581.13
2023-05-08T05:31:03.322Z,101584.69
2023-05-08T05:36:07.620Z,101571.75
2023-05-08T05:41:12.925Z,101571.00
2023-05-08T05:46:16.580Z,101568.59
2023-05-08T05:51:20.253Z,101570.28
2023-05-08T05:56:25.464Z,101565.19
2023-05-08T06:01:29.104Z,101560.19
2023-05-08T06:06:32.770Z,101564.53
2023-05-08T06:11:38.047Z,101545.66
2023-05-08T06:16:41.730Z,101557.94
2023-05-08T06:21:45.306Z,101551.03
2023-05-08T06:26:50.553Z,101540.56
2023-05-08T06:31:54.157Z,101549.38
2023-05-08T06:36:57.838Z,101547.69
2023-05-08T06:42:03.134Z,101544.28
2023-05-08T06:47:06.806Z,101559.97
2023-05-08T06:52:10.404Z,101555.59
2023-05-08T06:57:15.747Z,101554.91
2023-05-08T07:02:19.448Z,101550.59
2023-05-08T07:07:23.055Z,101556.69
2023-05-08T07:12:29.184Z,101569.75
2023-05-08T07:17:32.015Z,101554.16
2023-05-08T07:22:35.944Z,101565.44
2023-05-08T07:27:41.204Z,101558.50
2023-05-08T07:32:44.870Z,101562.88
2023-05-08T07:37:48.541Z,101549.75
2023-05-08T07:42:54.671Z,101542.84
2023-05-08T07:47:58.576Z,101532.47
2023-05-08T07:53:02.223Z,101539.38
2023-05-08T07:58:09.325Z,101544.59
2023-05-08T08:03:13.077Z,101546.31
2023-05-08T08:08:16.724Z,101535.97
2023-05-08T08:13:22.052Z,101535.09
2023-05-08T08:18:25.827Z,101523.81
2023-05-08T08:23:29.427Z,101528.13
2023-05-08T08:28:34.686Z,101531.56
2023-05-08T08:33:38.267Z,101527.19
2023-05-08T08:38:41.977Z,101516.66
2023-05-08T08:43:48.178Z,101508.78
2023-05-08T08:48:51.853Z,101488.78
2023-05-08T08:54:04.118Z,101486.25
2023-05-08T08:59:09.999Z,101481.72
2023-05-08T09:04:13.868Z,101471.97
2023-05-08T09:09:17.695Z,101476.88
2023-05-08T09:14:23.085Z,101466.22
2023-05-08T09:19:29.250Z,101472.22
2023-05-08T09:24:46.562Z,101466.81
2023-05-08T09:30:00.003Z,101475.41
2023-05-08T09:35:03.980Z,101476.28
2023-05-08T09:40:21.996Z,101468.19
2023-05-08T09:45:32.122Z,101459.47
2023-05-08T09:50:36.016Z,101463.03
2023-05-08T09:55:49.044Z,101471.66
2023-05-08T10:00:54.410Z,101469.88
2023-05-08T10:06:13.626Z,101466.31
2023-05-08T10:11:17.868Z,101469.78
2023-05-08T10:16:24.283Z,101465.34
2023-05-08T10:21:30.433Z,101457.31
2023-05-08T10:26:34.830Z,101465.16
2023-05-08T10:31:41.877Z,101472.97
2023-05-08T10:36:46.948Z,101462.47
2023-05-08T10:41:50.872Z,101455.53
2023-05-08T10:47:04.437Z,101451.53
2023-05-08T10:52:19.564Z,101457.44
2023-05-08T10:57:23.188Z,101453.88
2023-05-08T11:02:31.011Z,101452.41
2023-05-08T11:07:56.177Z,101445.34
2023-05-08T11:13:00.983Z,101467.16
2023-05-08T11:18:07.903Z,101460.22
2023-05-08T11:23:29.716Z,101457.69
2023-05-08T11:28:39.499Z,101470.03
2023-05-08T11:33:44.899Z,101471.88
2023-05-08T11:39:08.192Z,101469.03
2023-05-08T11:44:19.833Z,101468.16
2023-05-08T11:49:29.708Z,101460.28
2023-05-08T11:54:33.994Z,101449.72
2023-05-08T11:59:37.701Z,101441.91
2023-05-08T12:04:48.871Z,101428.81
2023-05-08T12:09:52.604Z,101430.66
2023-05-08T12:14:56.277Z,101422.72
2023-05-08T12:20:11.393Z,101422.56
2023-05-08T12:25:17.278Z,101417.25
2023-05-08T12:30:21.432Z,101422.44
2023-05-08T12:35:28.229Z,101416.44
2023-05-08T12:40:34.057Z,101419.31
2023-05-08T13:16:28.404Z,101432.31
2023-05-08T13:21:31.318Z,101436.81
2023-05-08T13:26:34.955Z,101451.81
2023-05-08T13:31:40.317Z,101453.66
2023-05-08T15:17:45.681Z,101567.34
2023-05-08T15:22:49.453Z,101561.09
2023-05-08T15:27:53.120Z,101568.81
2023-05-08T15:32:58.458Z,101567.81
2023-05-08T15:38:02.094Z,101566.44
2023-05-08T15:43:05.765Z,101572.28
2023-05-08T15:48:11.025Z,101572.53
2023-05-08T15:53:14.656Z,101570.03
2023-05-08T15:58:18.301Z,101588.47
2023-05-08T16:03:23.653Z,101580.69
2023-05-08T16:08:27.372Z,101592.50
2023-05-08T16:13:31.042Z,101592.13
2023-05-08T16:18:36.297Z,101593.69
2023-05-08T16:23:39.978Z,101604.69
2023-05-08T16:28:43.580Z,101611.34
2023-05-08T16:33:48.852Z,101618.09
2023-05-08T16:38:52.510Z,101610.97
2023-05-08T16:43:56.124Z,101620.38
2023-05-08T16:49:01.404Z,101627.16
2023-05-08T16:54:05.165Z,101631.34
2023-05-08T16:59:08.789Z,101631.84
2023-05-08T17:04:14.139Z,101630.44
2023-05-08T17:09:17.727Z,101627.03
2023-05-08T17:14:21.330Z,101635.31
2023-05-08T17:19:26.701Z,101618.97
2023-05-08T17:24:31.392Z,101631.75
2023-05-08T17:29:35.105Z,101629.31
2023-05-08T17:34:40.414Z,101619.38
2023-05-08T17:39:44.139Z,101631.41
2023-05-08T17:44:47.834Z,101626.91
2023-05-08T17:49:53.089Z,101626.94
2023-05-08T17:54:56.761Z,101622.41
2023-05-08T18:00:00.369Z,101631.72
2023-05-08T18:05:06.184Z,101632.06
2023-05-08T18:10:10.548Z,101617.34
2023-05-08T18:15:14.477Z,101636.06
2023-05-08T18:20:20.122Z,101640.47
2023-05-08T18:25:23.716Z,101642.88
2023-05-08T18:30:27.342Z,101630.88
2023-05-08T18:35:32.627Z,101631.59
2023-05-08T18:40:35.459Z,101641.72
2023-05-08T18:45:40.027Z,101638.16
2023-05-08T18:50:45.325Z,101644.16
2023-05-08T18:55:48.952Z,101631.63
2023-05-08T19:00:56.265Z,101630.34
2023-05-08T19:06:01.600Z,101626.63
2023-05-08T19:11:05.228Z,101635.22
2023-05-08T19:16:08.911Z,101627.28
2023-05-08T19:21:15.519Z,101617.03
2023-05-08T19:26:19.174Z,101603.09
2023-05-08T19:31:22.883Z,101597.16
2023-05-08T19:36:29.104Z,101599.44
2023-05-08T19:41:32.705Z,101595.75
2023-05-08T19:46:36.386Z,101593.19
2023-05-08T19:51:41.712Z,101584.19
2023-05-08T19:56:44.547Z,101582.03
2023-05-08T20:01:48.151Z,101594.19
2023-05-08T20:06:53.433Z,101586.31
2023-05-08T20:11:56.284Z,101587.06
2023-05-08T20:16:59.916Z,101586.94
2023-05-08T20:22:06.064Z,101581.69
2023-05-08T20:27:09.734Z,101581.38
2023-05-08T20:32:13.465Z,101581.72
2023-05-08T20:37:18.788Z,101578.81
2023-05-08T20:42:21.662Z,101593.41
2023-05-08T20:47:25.302Z,101571.75
2023-05-08T20:52:30.549Z,101590.19
2023-05-08T20:57:33.395Z,101582.63
2023-05-08T21:02:37.013Z,101565.75
2023-05-08T21:07:42.284Z,101570.47
2023-05-08T21:12:45.155Z,101570.84
2023-05-08T21:17:49.612Z,101566.56
2023-05-08T21:22:54.909Z,101554.09
2023-05-08T21:27:57.765Z,101553.97
2023-05-08T21:33:01.413Z,101562.13
2023-05-08T21:38:06.704Z,101553.28
2023-05-08T21:43:09.630Z,101550.28
2023-05-08T21:48:13.288Z,101556.00
2023-05-08T21:53:18.553Z,101537.50
2023-05-08T21:58:21.393Z,101544.06
2023-05-08T22:03:25.109Z,101536.16
2023-05-08T22:08:30.628Z,101533.38
2023-05-08T22:13:34.255Z,101530.16
2023-05-08T22:18:37.871Z,101528.38
2023-05-08T22:23:44.077Z,101536.81
2023-05-08T22:28:47.680Z,101523.25
2023-05-08T22:33:51.253Z,101518.16
2023-05-08T22:38:56.551Z,101523.31
2023-05-08T22:44:00.076Z,101530.59
2023-05-08T22:49:03.771Z,101529.84
2023-05-08T22:54:09.081Z,101520.25
2023-05-08T22:59:11.918Z,101517.41
2023-05-08T23:04:15.578Z,101516.25
2023-05-08T23:09:20.872Z,101497.94
2023-05-08T23:14:25.220Z,101496.34
2023-05-08T23:19:28.814Z,101495.56
2023-05-08T23:24:36.006Z,101494.38
2023-05-08T23:29:39.606Z,101481.94
2023-05-08T23:34:43.747Z,101489.25
2023-05-08T23:39:49.020Z,101481.56
2023-05-08T23:44:52.667Z,101481.63
2023-05-08T23:49:56.331Z,101485.59
2023-05-08T23:55:02.580Z,101477.09
